createdAt,value
2023-01-26T00:01:21.217Z,6.47
2023-01-26T00:03:50.465Z,6.63
2023-01-26T00:06:21.197Z,6.42
2023-01-26T00:08:52.642Z,6.63
2023-01-26T00:11:24.657Z,6.51
2023-01-26T00:13:53.533Z,6.64
2023-01-26T00:16:22.851Z,6.77
2023-01-26T00:18:51.495Z,6.84
2023-01-26T00:21:22.945Z,6.68
2023-01-26T00:23:53.720Z,6.85
2023-01-26T00:26:26.683Z,6.91
2023-01-26T00:28:55.904Z,6.96
2023-01-26T00:31:27.388Z,6.89
2023-01-26T00:33:57.640Z,6.80
2023-01-26T00:36:27.613Z,6.87
2023-01-26T00:38:57.791Z,6.94
2023-01-26T00:41:44.225Z,6.62
2023-01-26T00:44:12.756Z,6.70
2023-01-26T00:46:42.123Z,6.71
2023-01-26T00:49:10.878Z,6.75
2023-01-26T00:51:39.762Z,6.94
2023-01-26T00:54:09.752Z,6.94
2023-01-26T00:56:38.598Z,7.06
2023-01-26T00:59:07.790Z,6.96
2023-01-26T01:01:36.696Z,6.88
2023-01-26T01:04:05.345Z,6.77
2023-01-26T01:06:35.156Z,6.95
2023-01-26T01:09:03.798Z,6.97
2023-01-26T01:11:34.101Z,7.01
2023-01-26T01:14:02.754Z,7.17
2023-01-26T01:16:31.774Z,7.02
2023-01-26T01:19:00.456Z,6.77
2023-01-26T01:21:29.310Z,6.67
2023-01-26T01:23:57.907Z,6.82
2023-01-26T01:26:28.256Z,6.87
2023-01-26T01:28:58.555Z,6.75
2023-01-26T01:31:29.385Z,6.77
2023-01-26T01:33:58.719Z,6.76
2023-01-26T01:36:29.226Z,6.77
2023-01-26T01:38:58.255Z,6.72
2023-01-26T01:41:27.111Z,6.68
2023-01-26T01:44:15.356Z,6.67
2023-01-26T01:46:48.476Z,6.43
2023-01-26T01:49:21.345Z,6.51
2023-01-26T01:51:55.796Z,6.52
2023-01-26T01:54:29.997Z,6.21
2023-01-26T01:57:05.816Z,6.30
2023-01-26T01:59:36.629Z,6.44
2023-01-26T02:02:05.523Z,6.46
2023-01-26T02:04:34.489Z,6.40
2023-01-26T02:07:06.749Z,6.31
2023-01-26T02:09:56.928Z,6.23
2023-01-26T02:12:30.704Z,6.23
2023-01-26T02:15:02.520Z,6.40
2023-01-26T02:17:32.800Z,6.24
2023-01-26T02:20:06.273Z,6.01
2023-01-26T02:22:46.852Z,5.82
2023-01-26T02:25:26.966Z,5.75
2023-01-26T02:27:57.381Z,5.70
2023-01-26T02:30:28.358Z,5.75
2023-01-26T02:32:57.709Z,5.87
2023-01-26T02:35:26.853Z,5.85
2023-01-26T02:37:55.705Z,5.71
2023-01-26T02:40:31.181Z,5.43
2023-01-26T02:43:02.548Z,5.49
2023-01-26T02:45:32.556Z,5.45
2023-01-26T02:48:06.497Z,5.69
2023-01-26T02:50:36.531Z,5.75
2023-01-26T02:53:05.519Z,5.61
2023-01-26T02:55:33.066Z,5.85
2023-01-26T02:58:06.047Z,5.86
2023-01-26T03:00:38.222Z,5.94
2023-01-26T03:03:13.586Z,6.27
2023-01-26T03:05:42.429Z,6.11
2023-01-26T03:08:11.748Z,6.35
2023-01-26T03:10:40.522Z,6.19
2023-01-26T03:13:10.982Z,6.36
2023-01-26T03:15:48.083Z,6.29
2023-01-26T03:18:35.872Z,6.27
2023-01-26T03:21:24.466Z,6.04
2023-01-26T03:24:11.037Z,6.27
2023-01-26T03:26:58.121Z,5.90
2023-01-26T03:29:29.747Z,5.95
2023-01-26T03:32:01.869Z,5.96
2023-01-26T03:34:31.025Z,5.83
2023-01-26T03:37:00.036Z,5.92
2023-01-26T03:39:52.953Z,5.98
2023-01-26T03:42:38.806Z,5.81
2023-01-26T03:45:27.102Z,5.84
2023-01-26T03:48:22.377Z,5.70
2023-01-26T03:51:09.183Z,5.88
2023-01-26T03:53:55.288Z,5.62
2023-01-26T03:56:25.557Z,5.85
2023-01-26T03:59:08.414Z,5.86
2023-01-26T04:01:41.375Z,6.02
2023-01-26T04:04:29.662Z,6.06
2023-01-26T04:07:15.745Z,6.08
2023-01-26T04:09:49.676Z,5.91
2023-01-26T04:12:18.743Z,5.70
2023-01-26T04:15:17.089Z,5.66
2023-01-26T04:18:05.305Z,5.56
2023-01-26T04:20:51.491Z,5.57
2023-01-26T04:23:21.283Z,5.66
2023-01-26T04:25:52.243Z,5.78
2023-01-26T04:28:21.467Z,5.63
2023-01-26T04:30:50.457Z,5.11
2023-01-26T04:33:20.876Z,5.18
2023-01-26T04:35:49.808Z,5.24
2023-01-26T04:38:19.151Z,5.19
2023-01-26T04:40:54.796Z,5.39
2023-01-26T04:43:24.097Z,5.35
2023-01-26T04:46:00.179Z,5.36
2023-01-26T04:48:32.375Z,5.53
2023-01-26T04:51:02.640Z,5.50
2023-01-26T04:53:33.577Z,5.30
2023-01-26T04:56:02.568Z,5.38
2023-01-26T04:58:34.166Z,5.44
2023-01-26T05:01:03.357Z,5.44
2023-01-26T05:03:33.805Z,5.42
2023-01-26T05:06:02.517Z,5.58
2023-01-26T05:08:31.864Z,5.22
2023-01-26T05:11:01.940Z,5.30
2023-01-26T05:13:48.400Z,5.41
2023-01-26T05:16:35.630Z,5.28
2023-01-26T05:19:10.454Z,5.39
2023-01-26T05:21:47.749Z,5.40
2023-01-26T05:24:16.858Z,5.24
2023-01-26T05:27:22.464Z,5.27
2023-01-26T05:29:55.292Z,5.32
2023-01-26T05:32:24.344Z,5.59
2023-01-26T05:34:54.630Z,5.24
2023-01-26T05:37:25.831Z,5.50
2023-01-26T05:39:54.822Z,5.27
2023-01-26T05:42:24.122Z,5.06
2023-01-26T05:45:20.465Z,5.21
2023-01-26T05:47:51.092Z,5.10
2023-01-26T05:50:22.271Z,5.26
2023-01-26T05:53:10.884Z,5.27
2023-01-26T05:55:40.716Z,5.59
2023-01-26T05:58:09.395Z,5.62
2023-01-26T06:00:38.260Z,5.57
2023-01-26T06:03:11.960Z,5.54
2023-01-26T06:05:42.535Z,5.61
2023-01-26T06:08:23.541Z,5.85
2023-01-26T06:11:15.092Z,5.93
2023-01-26T06:14:02.174Z,5.84
2023-01-26T06:16:32.123Z,5.90
2023-01-26T06:19:01.295Z,5.89
2023-01-26T06:21:32.233Z,5.81
2023-01-26T06:24:01.559Z,5.91
2023-01-26T06:26:30.735Z,5.97
2023-01-26T06:29:00.324Z,6.02
2023-01-26T06:31:33.359Z,6.13
2023-01-26T06:34:03.099Z,6.01
2023-01-26T06:36:33.447Z,6.01
2023-01-26T06:39:02.709Z,5.97
2023-01-26T06:41:32.993Z,6.11
2023-01-26T06:44:02.567Z,5.94
2023-01-26T06:46:31.537Z,5.92
2023-01-26T06:49:02.700Z,5.84
2023-01-26T06:51:53.549Z,6.05
2023-01-26T06:54:23.400Z,5.91
2023-01-26T06:57:15.527Z,6.22
2023-01-26T06:59:57.364Z,6.02
2023-01-26T07:02:35.092Z,5.95
2023-01-26T07:05:04.066Z,6.02
2023-01-26T07:07:34.352Z,6.10
2023-01-26T07:10:02.957Z,5.85
2023-01-26T07:12:40.040Z,5.85
2023-01-26T07:15:09.646Z,5.86
2023-01-26T07:17:38.963Z,6.12
2023-01-26T07:20:09.178Z,6.16
2023-01-26T07:22:40.368Z,6.24
2023-01-26T07:25:09.457Z,6.21
2023-01-26T07:27:38.480Z,6.06
2023-01-26T07:30:08.835Z,5.95
2023-01-26T07:32:37.942Z,5.87
2023-01-26T07:35:07.357Z,5.96
2023-01-26T07:37:36.481Z,6.04
2023-01-26T07:40:07.693Z,6.12
2023-01-26T07:42:36.614Z,6.18
2023-01-26T07:45:09.792Z,6.12
2023-01-26T07:47:38.707Z,6.02
2023-01-26T07:50:07.973Z,6.06
2023-01-26T07:52:37.032Z,6.25
2023-01-26T07:55:08.106Z,6.26
2023-01-26T07:57:37.098Z,5.82
2023-01-26T08:00:06.646Z,6.01
2023-01-26T08:02:40.900Z,5.90
2023-01-26T08:05:10.520Z,5.90
2023-01-26T08:07:39.665Z,5.81
2023-01-26T08:10:12.731Z,5.74
2023-01-26T08:12:42.070Z,5.71
2023-01-26T08:15:11.832Z,5.74
2023-01-26T08:17:40.693Z,5.76
2023-01-26T08:20:11.106Z,5.61
2023-01-26T08:22:40.996Z,5.85
2023-01-26T08:25:11.876Z,5.80
2023-01-26T08:27:41.156Z,6.10
2023-01-26T08:30:11.578Z,6.02
2023-01-26T08:32:40.826Z,5.96
2023-01-26T08:35:10.403Z,5.92
2023-01-26T08:37:39.668Z,6.07
2023-01-26T08:40:10.958Z,5.74
2023-01-26T08:42:41.640Z,5.94
2023-01-26T08:45:11.311Z,5.90
2023-01-26T08:47:40.500Z,6.01
2023-01-26T08:50:10.860Z,5.81
2023-01-26T08:52:40.289Z,5.87
2023-01-26T08:55:09.756Z,6.13
2023-01-26T08:57:39.267Z,5.74
2023-01-26T09:00:11.453Z,5.73
2023-01-26T09:02:41.074Z,5.82
2023-01-26T09:05:11.058Z,5.80
2023-01-26T09:07:40.542Z,5.70
2023-01-26T09:10:12.657Z,6.00
2023-01-26T09:12:42.256Z,6.19
2023-01-26T09:15:12.831Z,5.89
2023-01-26T09:17:42.540Z,6.01
2023-01-26T09:20:12.454Z,6.01
2023-01-26T09:22:42.670Z,5.90
2023-01-26T09:25:11.863Z,6.12
2023-01-26T09:27:41.531Z,5.97
2023-01-26T09:30:13.144Z,5.60
2023-01-26T09:32:42.153Z,5.42
2023-01-26T09:35:14.278Z,5.30
2023-01-26T09:37:45.521Z,5.31
2023-01-26T09:40:20.952Z,5.37
2023-01-26T09:43:06.394Z,5.16
2023-01-26T09:45:43.627Z,5.09
2023-01-26T09:48:25.428Z,5.34
2023-01-26T09:50:59.295Z,5.27
2023-01-26T09:53:42.288Z,5.59
2023-01-26T09:56:16.755Z,5.59
2023-01-26T09:58:51.128Z,5.78
2023-01-26T10:01:29.270Z,5.76
2023-01-26T10:04:06.676Z,5.89
2023-01-26T10:06:38.319Z,5.82
2023-01-26T10:09:21.215Z,5.78
2023-01-26T10:11:53.759Z,5.96
2023-01-26T10:14:32.616Z,5.83
2023-01-26T10:17:04.821Z,6.03
2023-01-26T10:19:36.986Z,5.99
2023-01-26T10:22:11.487Z,5.73
2023-01-26T10:24:41.168Z,5.95
2023-01-26T10:27:14.263Z,5.79
2023-01-26T10:29:43.406Z,5.95
2023-01-26T10:32:16.237Z,6.10
2023-01-26T10:34:47.121Z,5.98
2023-01-26T10:37:22.156Z,6.30
2023-01-26T10:40:01.889Z,6.18
2023-01-26T10:42:33.303Z,6.22
2023-01-26T10:45:04.791Z,6.33
2023-01-26T10:47:35.031Z,6.25
2023-01-26T10:50:23.110Z,6.41
2023-01-26T10:53:02.820Z,6.52
2023-01-26T10:55:33.979Z,6.30
2023-01-26T10:58:02.911Z,6.29
2023-01-26T11:00:33.528Z,6.39
2023-01-26T11:03:08.098Z,6.03
2023-01-26T11:05:37.211Z,6.20
2023-01-26T11:08:33.894Z,6.18
2023-01-26T11:11:04.150Z,6.41
2023-01-26T11:13:32.742Z,6.22
2023-01-26T11:16:13.610Z,6.19
2023-01-26T11:18:55.571Z,6.02
2023-01-26T11:21:32.157Z,5.94
2023-01-26T11:24:06.364Z,5.96
2023-01-26T11:27:03.860Z,6.15
2023-01-26T11:29:54.939Z,5.98
2023-01-26T11:32:31.732Z,6.17
2023-01-26T11:35:14.250Z,6.39
2023-01-26T11:37:53.068Z,6.31
2023-01-26T11:40:31.245Z,6.11
2023-01-26T11:43:19.842Z,6.26
2023-01-26T11:46:09.753Z,6.27
2023-01-26T11:48:52.792Z,6.25
2023-01-26T11:51:36.832Z,6.28
2023-01-26T11:54:30.222Z,6.17
2023-01-26T11:57:13.910Z,6.05
2023-01-26T11:59:48.494Z,5.94
2023-01-26T12:02:29.664Z,6.24
2023-01-26T12:05:03.415Z,6.15
2023-01-26T12:07:51.408Z,6.26
2023-01-26T12:10:28.686Z,6.35
2023-01-26T12:13:07.026Z,6.38
2023-01-26T12:15:39.717Z,6.33
2023-01-26T12:18:20.497Z,6.42
2023-01-26T12:20:55.465Z,6.27
2023-01-26T12:23:33.551Z,5.96
2023-01-26T12:26:08.994Z,6.00
2023-01-26T12:28:46.982Z,6.11
2023-01-26T12:31:23.942Z,6.04
2023-01-26T12:33:56.032Z,6.20
2023-01-26T12:36:36.673Z,5.78
2023-01-26T12:39:14.238Z,5.91
2023-01-26T12:42:02.855Z,5.60
2023-01-26T12:44:39.821Z,5.71
2023-01-26T12:47:18.921Z,5.66
2023-01-26T12:49:56.393Z,5.59
2023-01-26T12:52:33.445Z,5.20
2023-01-26T12:55:14.317Z,5.43
2023-01-26T12:57:50.503Z,5.51
2023-01-26T13:00:22.473Z,5.45
2023-01-26T13:02:58.022Z,5.23
2023-01-26T13:05:29.638Z,5.11
2023-01-26T13:07:58.921Z,5.04
2023-01-26T13:10:44.933Z,4.90
2023-01-26T13:13:32.157Z,4.85
2023-01-26T13:16:43.562Z,4.94
2023-01-26T13:19:35.978Z,4.97
2023-01-26T13:22:05.127Z,5.00
2023-01-26T13:24:44.600Z,5.01
2023-01-26T13:27:35.119Z,5.16
2023-01-26T13:30:05.208Z,5.19
2023-01-26T13:33:06.476Z,5.53
2023-01-26T13:35:36.959Z,5.20
2023-01-26T13:38:15.544Z,5.21
2023-01-26T13:40:48.113Z,5.16
2023-01-26T13:44:07.680Z,5.19
2023-01-26T13:46:42.159Z,4.77
2023-01-26T13:49:26.061Z,4.73
2023-01-26T13:51:55.185Z,4.97
2023-01-26T13:54:25.120Z,4.79
2023-01-26T13:57:05.964Z,4.88
2023-01-26T13:59:35.728Z,5.01
2023-01-26T14:02:23.952Z,4.85
2023-01-26T14:04:55.496Z,4.72
2023-01-26T14:07:28.409Z,4.96
2023-01-26T14:10:02.169Z,4.98
2023-01-26T14:12:34.735Z,5.07
2023-01-26T14:15:07.355Z,4.84
2023-01-26T14:17:48.033Z,4.58
2023-01-26T14:20:25.664Z,4.95
2023-01-26T14:23:05.146Z,4.88
2023-01-26T14:25:34.820Z,4.54
2023-01-26T14:28:03.972Z,4.52
2023-01-26T14:30:34.545Z,4.81
2023-01-26T14:33:09.319Z,4.52
2023-01-26T14:35:38.114Z,4.33
2023-01-26T14:38:15.394Z,4.37
2023-01-26T14:40:45.824Z,4.63
2023-01-26T14:43:15.723Z,4.81
2023-01-26T14:45:50.628Z,5.07
2023-01-26T14:48:31.075Z,4.92
2023-01-26T14:51:01.708Z,4.86
2023-01-26T14:53:31.277Z,4.81
2023-01-26T14:56:00.056Z,4.76
2023-01-26T14:58:31.669Z,4.70
2023-01-26T15:01:03.191Z,4.71
2023-01-26T15:03:37.399Z,4.63
2023-01-26T15:06:18.345Z,4.29
2023-01-26T15:09:02.401Z,4.45
2023-01-26T15:11:53.779Z,4.72
2023-01-26T15:14:35.338Z,4.64
2023-01-26T15:17:05.435Z,4.69
2023-01-26T15:19:42.087Z,4.41
2023-01-26T15:22:22.054Z,4.36
2023-01-26T15:25:02.190Z,4.31
2023-01-26T15:27:35.266Z,4.32
2023-01-26T15:30:08.070Z,4.09
2023-01-26T15:32:41.172Z,4.26
2023-01-26T15:35:23.366Z,4.57
2023-01-26T15:38:02.150Z,4.40
2023-01-26T15:40:32.629Z,4.27
2023-01-26T15:44:14.582Z,4.20
2023-01-26T15:48:48.113Z,4.04
2023-01-26T15:52:14.835Z,4.07
2023-01-26T15:54:44.171Z,4.06
2023-01-26T15:57:13.876Z,3.97
2023-01-26T15:59:42.422Z,3.94
2023-01-26T16:02:39.349Z,3.89
2023-01-26T16:06:52.334Z,4.17
2023-01-26T16:10:14.147Z,4.28
2023-01-26T16:12:44.023Z,4.39
2023-01-26T16:15:28.638Z,4.54
2023-01-26T16:18:22.868Z,4.41
2023-01-26T16:20:52.627Z,4.37
2023-01-26T16:23:23.539Z,4.42
2023-01-26T16:25:54.631Z,4.48
2023-01-26T16:28:23.705Z,4.63
2023-01-26T16:30:52.756Z,4.69
2023-01-26T16:33:22.096Z,4.65
2023-01-26T16:35:50.994Z,4.52
2023-01-26T16:38:19.711Z,4.44
2023-01-26T16:40:50.694Z,4.21
2023-01-26T16:43:24.081Z,4.29
2023-01-26T16:45:53.734Z,4.34
2023-01-26T16:48:23.698Z,4.21
2023-01-26T16:50:54.555Z,4.32
2023-01-26T16:53:27.453Z,4.18
2023-01-26T16:55:56.563Z,4.24
2023-01-26T16:58:27.353Z,4.23
2023-01-26T17:00:56.597Z,4.29
2023-01-26T17:03:25.706Z,4.41
2023-01-26T17:05:55.988Z,4.56
2023-01-26T17:08:24.724Z,4.59
2023-01-26T17:11:02.112Z,4.35
2023-01-26T17:13:33.658Z,4.74
2023-01-26T17:16:03.399Z,4.66
2023-01-26T17:18:33.548Z,4.84
2023-01-26T17:21:04.161Z,4.55
2023-01-26T17:23:32.942Z,4.64
2023-01-26T17:26:02.189Z,4.76
2023-01-26T17:28:32.539Z,5.00
2023-01-26T17:31:01.765Z,5.02
2023-01-26T17:33:31.012Z,5.00
2023-01-26T17:36:03.513Z,5.00
2023-01-26T17:38:32.467Z,4.89
2023-01-26T17:41:01.713Z,4.76
2023-01-26T17:43:30.864Z,4.71
2023-01-26T17:46:05.958Z,4.76
2023-01-26T17:48:35.500Z,4.54
2023-01-26T17:51:07.129Z,4.66
2023-01-26T17:53:38.606Z,4.79
2023-01-26T17:56:08.663Z,4.84
2023-01-26T17:58:37.957Z,4.97
2023-01-26T18:01:09.783Z,4.78
2023-01-26T18:03:42.111Z,5.08
2023-01-26T18:06:11.547Z,5.22
2023-01-26T18:08:41.405Z,5.10
2023-01-26T18:11:12.582Z,5.10
2023-01-26T18:13:41.934Z,5.04
2023-01-26T18:16:16.396Z,5.16
2023-01-26T18:18:45.457Z,5.26
2023-01-26T18:21:17.145Z,5.44
2023-01-26T18:23:47.306Z,5.11
2023-01-26T18:26:17.392Z,4.91
2023-01-26T18:28:46.731Z,5.17
2023-01-26T18:31:20.249Z,5.09
2023-01-26T18:33:49.630Z,4.99
2023-01-26T18:36:20.928Z,4.92
2023-01-26T18:38:52.097Z,5.17
2023-01-26T18:41:23.668Z,5.38
2023-01-26T18:43:53.398Z,5.40
2023-01-26T18:46:24.059Z,5.63
2023-01-26T18:48:54.381Z,5.73
2023-01-26T18:51:23.450Z,5.65
2023-01-26T18:53:52.141Z,5.31
2023-01-26T18:56:20.988Z,5.30
2023-01-26T18:58:52.905Z,5.27
2023-01-26T19:01:23.586Z,5.08
2023-01-26T19:03:55.659Z,5.22
2023-01-26T19:06:26.033Z,5.30
2023-01-26T19:08:58.693Z,5.63
2023-01-26T19:11:29.240Z,5.39
2023-01-26T19:13:59.312Z,5.12
2023-01-26T19:16:30.707Z,5.07
2023-01-26T19:18:59.732Z,5.16
2023-01-26T19:21:29.611Z,5.19
2023-01-26T19:24:02.478Z,5.27
2023-01-26T19:26:31.685Z,5.38
2023-01-26T19:29:00.437Z,5.69
2023-01-26T19:31:32.093Z,5.74
2023-01-26T19:34:02.531Z,5.62
2023-01-26T19:36:33.542Z,5.74
2023-01-26T19:39:02.610Z,5.84
2023-01-26T19:41:31.502Z,5.76
2023-01-26T19:44:00.919Z,5.86
2023-01-26T19:46:31.365Z,5.66
2023-01-26T19:48:59.956Z,5.80
2023-01-26T19:51:29.461Z,5.93
2023-01-26T19:54:00.232Z,5.96
2023-01-26T19:56:30.974Z,5.93
2023-01-26T19:59:01.976Z,5.73
2023-01-26T20:01:32.903Z,5.69
2023-01-26T20:04:03.032Z,5.89
2023-01-26T20:06:34.389Z,5.75
2023-01-26T20:09:04.714Z,5.63
2023-01-26T20:11:34.319Z,5.91
2023-01-26T20:14:05.831Z,5.52
2023-01-26T20:16:36.462Z,5.71
2023-01-26T20:19:06.867Z,5.51
2023-01-26T20:21:37.077Z,5.73
2023-01-26T20:24:06.979Z,5.73
2023-01-26T20:26:36.638Z,5.98
2023-01-26T20:29:05.505Z,5.97
2023-01-26T20:31:36.485Z,6.12
2023-01-26T20:34:05.054Z,6.11
2023-01-26T20:36:35.314Z,5.96
2023-01-26T20:39:04.796Z,5.80
2023-01-26T20:41:34.474Z,6.03
2023-01-26T20:44:05.825Z,6.16
2023-01-26T20:46:37.940Z,6.25
2023-01-26T20:49:08.844Z,6.29
2023-01-26T20:51:39.520Z,6.39
2023-01-26T20:54:08.813Z,6.51
2023-01-26T20:56:38.367Z,6.48
2023-01-26T20:59:08.742Z,6.27
2023-01-26T21:01:39.055Z,6.39
2023-01-26T21:04:07.837Z,6.35
2023-01-26T21:06:38.986Z,6.45
2023-01-26T21:09:08.072Z,6.34
2023-01-26T21:11:37.574Z,6.24
2023-01-26T21:14:06.226Z,6.16
2023-01-26T21:16:36.146Z,5.84
2023-01-26T21:19:06.190Z,5.67
2023-01-26T21:21:35.729Z,5.70
2023-01-26T21:24:04.602Z,5.96
2023-01-26T21:26:34.996Z,5.80
2023-01-26T21:29:04.312Z,5.68
2023-01-26T21:31:34.867Z,5.78
2023-01-26T21:34:03.977Z,5.94
2023-01-26T21:36:35.153Z,5.88
2023-01-26T21:39:04.303Z,5.60
2023-01-26T21:41:51.601Z,5.75
2023-01-26T21:44:21.896Z,5.68
2023-01-26T21:46:53.017Z,5.61
2023-01-26T21:49:22.506Z,5.51
2023-01-26T21:52:11.415Z,5.83
2023-01-26T21:54:40.921Z,5.83
2023-01-26T21:57:25.524Z,5.44
2023-01-26T21:59:54.037Z,5.43
2023-01-26T22:02:23.395Z,5.60
2023-01-26T22:04:54.054Z,5.37
2023-01-26T22:07:24.597Z,5.37
2023-01-26T22:09:53.145Z,5.40
2023-01-26T22:12:24.073Z,5.42
2023-01-26T22:14:53.018Z,5.72
2023-01-26T22:17:21.865Z,5.75
2023-01-26T22:19:51.524Z,5.54
2023-01-26T22:22:20.324Z,5.43
2023-01-26T22:24:50.357Z,5.60
2023-01-26T22:27:19.401Z,5.53
2023-01-26T22:29:47.919Z,5.35
2023-01-26T22:32:17.019Z,5.49
2023-01-26T22:34:45.671Z,5.62
2023-01-26T22:37:15.367Z,5.63
2023-01-26T22:39:44.802Z,5.72
2023-01-26T22:42:15.053Z,5.79
2023-01-26T22:44:43.683Z,5.56
2023-01-26T22:47:12.862Z,5.33
2023-01-26T22:49:41.408Z,5.32
2023-01-26T22:52:10.288Z,5.34
2023-01-26T22:54:38.851Z,5.40
2023-01-26T22:57:07.846Z,5.40
2023-01-26T22:59:37.876Z,5.66
2023-01-26T23:02:06.699Z,5.63
2023-01-26T23:04:35.303Z,5.43
2023-01-26T23:07:04.104Z,5.33
2023-01-26T23:09:32.653Z,5.32
2023-01-26T23:12:02.646Z,5.56
2023-01-26T23:14:32.029Z,5.54
2023-01-26T23:17:02.471Z,5.57
2023-01-26T23:19:31.106Z,5.60
2023-01-26T23:21:59.834Z,5.39
2023-01-26T23:24:29.174Z,5.65
2023-01-26T23:26:57.997Z,5.82
2023-01-26T23:29:26.933Z,5.91
2023-01-26T23:31:55.958Z,5.90
2023-01-26T23:34:26.003Z,5.93
2023-01-26T23:36:54.896Z,6.03
2023-01-26T23:39:23.464Z,6.03
2023-01-26T23:41:52.302Z,6.09
2023-01-26T23:44:20.863Z,6.21
2023-01-26T23:46:50.149Z,6.28
2023-01-26T23:49:18.801Z,6.18
2023-01-26T23:51:49.014Z,6.36
2023-01-26T23:54:17.770Z,6.69
2023-01-26T23:56:46.696Z,6.43
2023-01-26T23:59:15.300Z,6.54
